createdAt,value
2018-04-01T00:00:57.536Z,10.18
2018-04-01T00:03:00.197Z,11.90
2018-04-01T00:05:02.852Z,10.90
2018-04-01T00:07:05.507Z,11.48
2018-04-01T00:09:08.177Z,9.80
2018-04-01T00:11:10.839Z,10.23
2018-04-01T00:13:13.505Z,10.57
2018-04-01T00:15:16.169Z,10.48
2018-04-01T00:17:18.857Z,10.05
2018-04-01T00:19:21.531Z,11.60
2018-04-01T00:21:24.227Z,10.27
2018-04-01T00:23:27.063Z,10.45
2018-04-01T00:25:29.717Z,10.40
2018-04-01T00:27:32.375Z,10.68
2018-04-01T00:29:35.040Z,10.70
2018-04-01T00:31:37.693Z,10.95
2018-04-01T00:33:40.360Z,33.55
2018-04-01T00:35:43.015Z,33.67
2018-04-01T00:37:45.683Z,59.78
2018-04-01T00:39:48.336Z,19.77
2018-04-01T00:41:50.992Z,13.27
2018-04-01T00:43:53.669Z,12.35
2018-04-01T00:45:56.323Z,11.05
2018-04-01T00:47:59.006Z,10.63
2018-04-01T00:50:01.685Z,10.80
2018-04-01T00:52:04.352Z,11.30
2018-04-01T00:54:07.027Z,10.63
2018-04-01T00:56:09.718Z,11.18
2018-04-01T00:58:12.473Z,11.55
2018-04-01T01:00:15.124Z,11.20
2018-04-01T01:02:17.788Z,12.35
2018-04-01T01:04:20.444Z,11.63
2018-04-01T01:06:23.091Z,11.80
2018-04-01T01:08:25.768Z,11.68
2018-04-01T01:10:28.435Z,10.95
2018-04-01T01:12:31.087Z,12.07
2018-04-01T01:14:33.744Z,11.55
2018-04-01T01:16:36.417Z,11.43
2018-04-01T01:18:39.083Z,11.88
2018-04-01T01:20:41.750Z,11.68
2018-04-01T01:22:44.445Z,12.65
2018-04-01T01:24:47.120Z,12.98
2018-04-01T01:26:49.780Z,12.57
2018-04-01T01:28:52.444Z,12.23
2018-04-01T01:30:55.101Z,12.93
2018-04-01T01:32:57.805Z,13.88
2018-04-01T01:35:00.456Z,12.70
2018-04-01T01:37:03.130Z,13.40
2018-04-01T01:39:05.930Z,13.35
2018-04-01T01:41:08.583Z,13.45
2018-04-01T01:43:11.235Z,13.73
2018-04-01T01:45:13.991Z,13.90
2018-04-01T01:47:16.664Z,13.18
2018-04-01T01:49:19.332Z,14.20
2018-04-01T01:51:22.000Z,13.98
2018-04-01T01:53:24.665Z,13.62
2018-04-01T01:55:27.319Z,13.77
2018-04-01T01:57:29.991Z,14.32
2018-04-01T01:59:32.658Z,14.13
2018-04-01T02:01:35.336Z,13.48
2018-04-01T02:03:38.020Z,13.35
2018-04-01T02:05:40.703Z,14.23
2018-04-01T02:07:43.363Z,14.98
2018-04-01T02:09:46.037Z,15.57
2018-04-01T02:11:48.687Z,14.50
2018-04-01T02:13:51.353Z,15.77
2018-04-01T02:15:54.020Z,15.02
2018-04-01T02:17:56.685Z,15.05
2018-04-01T02:19:59.377Z,14.85
2018-04-01T02:22:02.041Z,16.48
2018-04-01T02:24:04.716Z,15.73
2018-04-01T02:26:07.532Z,16.27
2018-04-01T02:28:10.193Z,16.30
2018-04-01T02:30:12.859Z,15.25
2018-04-01T02:32:15.628Z,15.68
2018-04-01T02:34:18.279Z,15.55
2018-04-01T02:36:20.937Z,17.80
2018-04-01T02:38:23.605Z,16.23
2018-04-01T02:40:26.272Z,15.38
2018-04-01T02:42:28.968Z,15.50
2018-04-01T02:44:31.636Z,16.23
2018-04-01T02:46:34.307Z,17.27
2018-04-01T02:48:36.969Z,15.90
2018-04-01T02:50:39.799Z,15.40
2018-04-01T02:52:42.454Z,14.70
2018-04-01T02:54:45.128Z,14.65
2018-04-01T02:56:47.941Z,15.60
2018-04-01T02:58:50.587Z,15.23
2018-04-01T03:00:53.240Z,14.77
2018-04-01T03:02:55.908Z,15.00
2018-04-01T03:04:58.565Z,14.95
2018-04-01T03:07:01.572Z,14.98
2018-04-01T03:09:04.231Z,70.28
2018-04-01T03:11:07.024Z,50.42
2018-04-01T03:13:09.653Z,25.62
2018-04-01T03:15:12.361Z,20.62
2018-04-01T03:17:15.028Z,16.10
2018-04-01T03:19:17.683Z,16.62
2018-04-01T03:21:20.337Z,14.85
2018-04-01T03:23:23.278Z,15.00
2018-04-01T03:25:25.943Z,15.50
2018-04-01T03:27:28.587Z,15.60
2018-04-01T03:29:31.267Z,13.60
2018-04-01T03:31:33.921Z,15.15
2018-04-01T03:33:36.588Z,14.25
2018-04-01T03:35:39.273Z,14.13
2018-04-01T03:37:41.937Z,16.00
2018-04-01T03:39:44.583Z,14.27
2018-04-01T03:41:47.243Z,14.63
2018-04-01T03:43:49.913Z,15.70
2018-04-01T03:45:52.558Z,14.55
2018-04-01T03:47:55.204Z,15.80
2018-04-01T03:49:57.893Z,14.57
2018-04-01T03:52:00.563Z,15.50
2018-04-01T03:54:03.210Z,15.57
2018-04-01T03:56:05.920Z,14.98
2018-04-01T03:58:08.585Z,16.67
2018-04-01T04:00:11.234Z,14.55
2018-04-01T04:02:13.920Z,15.15
2018-04-01T04:04:16.567Z,15.02
2018-04-01T04:06:19.244Z,13.40
2018-04-01T04:08:21.928Z,16.35
2018-04-01T04:10:24.575Z,15.50
2018-04-01T04:12:27.235Z,16.35
2018-04-01T04:14:30.060Z,15.02
2018-04-01T04:16:32.709Z,14.52
2018-04-01T04:18:35.356Z,17.08
2018-04-01T04:20:38.011Z,15.07
2018-04-01T04:22:40.665Z,15.30
2018-04-01T04:24:43.335Z,15.02
2018-04-01T04:26:45.993Z,14.15
2018-04-01T04:28:48.651Z,15.80
2018-04-01T04:30:51.318Z,14.60
2018-04-01T04:32:53.974Z,14.43
2018-04-01T04:34:56.964Z,14.13
2018-04-01T04:36:59.611Z,14.55
2018-04-01T04:39:02.279Z,14.10
2018-04-01T04:41:04.934Z,14.05
2018-04-01T04:43:07.623Z,14.10
2018-04-01T04:45:10.275Z,13.52
2018-04-01T04:47:12.946Z,13.32
2018-04-01T04:49:15.595Z,12.37
2018-04-01T04:51:18.255Z,13.50
2018-04-01T04:53:20.932Z,13.65
2018-04-01T04:55:23.612Z,13.05
2018-04-01T04:57:26.271Z,12.77
2018-04-01T04:59:29.222Z,13.82
2018-04-01T05:01:31.900Z,13.18
2018-04-01T05:03:34.547Z,13.70
2018-04-01T05:05:37.200Z,13.73
2018-04-01T05:07:40.269Z,13.25
2018-04-01T05:09:42.992Z,13.35
2018-04-01T05:11:45.663Z,13.43
2018-04-01T05:13:48.312Z,13.48
2018-04-01T05:15:50.978Z,13.45
2018-04-01T05:17:54.581Z,14.87
2018-04-01T05:19:57.890Z,12.25
2018-04-01T05:22:00.827Z,13.75
2018-04-01T05:24:03.741Z,13.70
2018-04-01T05:26:06.407Z,12.37
2018-04-01T05:28:09.075Z,12.73
2018-04-01T05:30:11.727Z,13.62
2018-04-01T05:32:14.404Z,12.45
2018-04-01T05:34:17.087Z,12.85
2018-04-01T05:36:19.747Z,13.88
2018-04-01T05:38:22.412Z,11.68
2018-04-01T05:40:25.077Z,12.23
2018-04-01T05:42:27.732Z,13.57
2018-04-01T05:44:30.404Z,12.43
2018-04-01T05:46:33.056Z,11.50
2018-04-01T05:48:35.718Z,12.02
2018-04-01T05:50:38.708Z,11.65
2018-04-01T05:52:41.375Z,11.15
2018-04-01T05:54:44.052Z,11.20
2018-04-01T05:56:46.712Z,11.52
2018-04-01T05:58:49.379Z,11.75
2018-04-01T06:00:52.051Z,11.32
2018-04-01T06:02:54.700Z,10.90
2018-04-01T06:04:57.357Z,10.93
2018-04-01T06:07:00.309Z,11.45
2018-04-01T06:09:02.986Z,12.77
2018-04-01T06:11:05.644Z,10.73
2018-04-01T06:13:08.314Z,11.65
2018-04-01T06:15:11.311Z,10.85
2018-04-01T06:17:13.959Z,10.52
2018-04-01T06:19:16.601Z,11.48
2018-04-01T06:21:19.291Z,11.40
2018-04-01T06:23:21.943Z,11.55
2018-04-01T06:25:24.595Z,10.20
2018-04-01T06:27:27.360Z,11.10
2018-04-01T06:29:30.036Z,10.55
2018-04-01T06:31:32.695Z,11.02
2018-04-01T06:33:35.367Z,10.93
2018-04-01T06:35:38.194Z,10.93
2018-04-01T06:37:40.863Z,12.10
2018-04-01T06:39:43.534Z,10.77
2018-04-01T06:41:46.478Z,10.90
2018-04-01T06:43:49.127Z,10.50
2018-04-01T06:45:51.775Z,10.60
2018-04-01T06:47:55.590Z,11.02
2018-04-01T06:49:58.251Z,11.30
2018-04-01T06:52:01.206Z,18.02
2018-04-01T06:54:03.871Z,27.48
2018-04-01T06:56:06.525Z,19.35
2018-04-01T06:58:10.201Z,12.10
2018-04-01T07:00:14.063Z,12.20
2018-04-01T07:02:17.476Z,10.52
2018-04-01T07:04:20.137Z,10.48
2018-04-01T07:06:27.927Z,10.20
2018-04-01T07:08:30.621Z,10.07
2018-04-01T07:10:33.389Z,52.35
2018-04-01T07:12:36.453Z,57.03
2018-04-01T07:14:39.119Z,48.10
2018-04-01T07:16:41.784Z,17.55
2018-04-01T07:18:44.447Z,11.27
2018-04-01T07:20:47.117Z,10.73
2018-04-01T07:22:49.782Z,9.63
2018-04-01T07:24:52.479Z,8.95
2018-04-01T07:26:55.224Z,9.35
2018-04-01T07:28:57.905Z,9.80
2018-04-01T07:31:00.563Z,9.75
2018-04-01T07:33:03.249Z,10.57
2018-04-01T07:35:05.891Z,9.73
2018-04-01T07:37:08.560Z,10.75
2018-04-01T07:39:11.207Z,9.52
2018-04-01T07:41:13.859Z,9.93
2018-04-01T07:43:16.529Z,9.80
2018-04-01T07:45:19.934Z,10.25
2018-04-01T07:47:22.878Z,13.80
2018-04-01T07:49:25.554Z,16.05
2018-04-01T07:51:28.238Z,13.00
2018-04-01T07:53:30.916Z,14.25
2018-04-01T07:55:33.587Z,11.15
2018-04-01T07:57:36.287Z,11.10
2018-04-01T07:59:38.963Z,10.07
2018-04-01T08:01:43.763Z,10.25
2018-04-01T08:03:46.427Z,11.05
2018-04-01T08:05:49.079Z,9.20
2018-04-01T08:07:51.762Z,10.85
2018-04-01T08:09:54.428Z,8.93
2018-04-01T08:11:57.088Z,10.38
2018-04-01T08:13:59.768Z,8.95
2018-04-01T08:16:02.459Z,9.98
2018-04-01T08:18:05.118Z,20.62
2018-04-01T08:20:07.811Z,20.05
2018-04-01T08:22:10.591Z,16.37
2018-04-01T08:24:13.264Z,9.60
2018-04-01T08:26:15.987Z,8.30
2018-04-01T08:28:18.979Z,9.25
2018-04-01T08:30:30.619Z,8.60
2018-04-01T08:32:33.454Z,9.25
2018-04-01T08:34:36.165Z,8.75
2018-04-01T08:36:38.988Z,9.00
2018-04-01T08:38:42.032Z,8.73
2018-04-01T08:40:44.732Z,9.18
2018-04-01T08:42:47.477Z,14.10
2018-04-01T08:44:51.618Z,17.10
2018-04-01T08:46:54.968Z,10.80
2018-04-01T08:48:57.644Z,7.95
2018-04-01T08:51:00.300Z,8.73
2018-04-01T08:53:02.955Z,8.20
2018-04-01T08:55:05.614Z,8.98
2018-04-01T08:57:08.298Z,8.48
2018-04-01T08:59:10.966Z,7.57
2018-04-01T09:01:15.830Z,7.55
2018-04-01T09:03:18.508Z,7.10
2018-04-01T09:05:21.199Z,7.57
2018-04-01T09:07:24.107Z,7.60
2018-04-01T09:09:26.947Z,8.20
2018-04-01T09:11:29.659Z,6.00
2018-04-01T09:13:32.503Z,6.62
2018-04-01T09:15:35.162Z,5.78
2018-04-01T09:17:38.069Z,5.80
2018-04-01T09:19:40.731Z,6.70
2018-04-01T09:21:43.403Z,5.90
2018-04-01T09:23:46.081Z,7.00
2018-04-01T09:25:48.743Z,6.47
2018-04-01T09:27:51.395Z,6.60
2018-04-01T09:29:54.046Z,7.25
2018-04-01T09:31:56.875Z,7.53
2018-04-01T09:33:59.543Z,11.95
2018-04-01T09:36:02.219Z,18.75
2018-04-01T09:38:04.879Z,30.05
2018-04-01T09:40:07.533Z,15.25
2018-04-01T09:42:10.273Z,8.90
2018-04-01T09:44:12.934Z,7.55
2018-04-01T09:46:15.589Z,7.30
2018-04-01T09:48:18.250Z,7.80
2018-04-01T09:50:21.013Z,7.53
2018-04-01T09:52:23.668Z,8.32
2018-04-01T09:54:26.326Z,7.12
2018-04-01T09:56:29.022Z,6.97
2018-04-01T09:58:31.943Z,7.25
2018-04-01T10:00:38.623Z,9.75
2018-04-01T10:02:41.507Z,12.32
2018-04-01T10:04:44.227Z,22.08
2018-04-01T10:06:46.942Z,9.10
2018-04-01T10:08:49.693Z,7.20
2018-04-01T10:10:52.415Z,7.45
2018-04-01T10:12:55.132Z,7.03
2018-04-01T10:14:58.215Z,5.85
2018-04-01T10:17:00.929Z,6.03
2018-04-01T10:19:03.637Z,6.30
2018-04-01T10:21:06.382Z,6.15
2018-04-01T10:23:09.094Z,5.68
2018-04-01T10:25:11.837Z,5.75
2018-04-01T10:27:14.851Z,5.75
2018-04-01T10:29:17.570Z,5.60
2018-04-01T10:31:20.295Z,5.62
2018-04-01T10:33:23.353Z,6.15
2018-04-01T10:35:26.129Z,5.55
2018-04-01T10:37:28.857Z,5.10
2018-04-01T10:39:31.722Z,5.78
2018-04-01T10:41:34.463Z,6.00
2018-04-01T10:43:37.171Z,6.00
2018-04-01T10:45:39.893Z,5.75
2018-04-01T10:47:42.616Z,5.78
2018-04-01T10:49:45.348Z,5.90
2018-04-01T10:51:48.059Z,5.60
2018-04-01T10:53:55.688Z,6.20
2018-04-01T10:55:58.786Z,6.30
2018-04-01T10:58:01.437Z,5.97
2018-04-01T11:00:04.377Z,7.40
2018-04-01T11:02:07.032Z,7.32
2018-04-01T11:04:09.681Z,7.70
2018-04-01T11:06:12.620Z,8.25
2018-04-01T11:08:15.301Z,7.78
2018-04-01T11:10:17.954Z,8.10
2018-04-01T11:12:20.595Z,8.38
2018-04-01T11:14:23.248Z,7.55
2018-04-01T11:16:26.281Z,7.75
2018-04-01T11:18:28.955Z,7.87
2018-04-01T11:20:31.599Z,8.65
2018-04-01T11:22:34.529Z,8.70
2018-04-01T11:24:37.219Z,7.78
2018-04-01T11:26:39.878Z,8.00
2018-04-01T11:28:42.559Z,7.87
2018-04-01T11:30:45.218Z,7.78
2018-04-01T11:32:47.880Z,7.93
2018-04-01T11:34:50.553Z,6.37
2018-04-01T11:36:53.206Z,7.32
2018-04-01T11:38:55.859Z,7.55
2018-04-01T11:40:58.519Z,7.72
2018-04-01T11:43:01.174Z,7.55
2018-04-01T11:45:03.828Z,8.25
2018-04-01T11:47:06.491Z,8.70
2018-04-01T11:49:09.154Z,9.20
2018-04-01T11:51:11.824Z,9.80
2018-04-01T11:53:15.508Z,8.75
2018-04-01T11:55:18.159Z,9.48
2018-04-01T11:57:21.130Z,8.70
2018-04-01T11:59:23.799Z,9.27
2018-04-01T12:01:26.524Z,9.40
2018-04-01T12:03:29.171Z,10.15
2018-04-01T12:05:31.856Z,10.10
2018-04-01T12:07:34.811Z,10.30
2018-04-01T12:09:37.486Z,10.45
2018-04-01T12:11:40.383Z,30.50
2018-04-01T12:13:43.072Z,28.27
2018-04-01T12:15:45.744Z,14.32
2018-04-01T12:17:48.462Z,12.50
2018-04-01T12:19:51.123Z,11.00
2018-04-01T12:21:53.807Z,12.15
2018-04-01T12:23:56.747Z,11.25
2018-04-01T12:25:59.423Z,11.98
2018-04-01T12:28:02.088Z,14.50
2018-04-01T12:30:04.765Z,13.62
2018-04-01T12:32:07.416Z,13.45
2018-04-01T12:34:10.075Z,12.37
2018-04-01T12:36:12.727Z,11.63
2018-04-01T12:38:15.415Z,10.95
2018-04-01T12:40:18.072Z,11.15
2018-04-01T12:42:20.741Z,30.52
2018-04-01T12:44:23.408Z,38.70
2018-04-01T12:46:26.060Z,13.05
2018-04-01T12:48:28.772Z,9.80
2018-04-01T12:50:31.530Z,9.50
2018-04-01T12:52:34.183Z,9.75
2018-04-01T12:54:36.839Z,9.75
2018-04-01T12:56:39.690Z,9.43
2018-04-01T12:58:42.353Z,8.90
2018-04-01T13:00:45.020Z,8.65
2018-04-01T13:02:47.778Z,8.55
2018-04-01T13:04:50.443Z,9.20
2018-04-01T13:06:53.106Z,9.23
2018-04-01T13:08:55.773Z,9.55
2018-04-01T13:10:58.449Z,8.98
2018-04-01T13:13:01.109Z,8.68
2018-04-01T13:15:03.814Z,9.25
2018-04-01T13:17:06.478Z,8.50
2018-04-01T13:19:09.146Z,8.77
2018-04-01T13:21:11.828Z,9.27
2018-04-01T13:23:14.479Z,9.10
2018-04-01T13:25:17.159Z,21.83
2018-04-01T13:27:19.835Z,15.88
2018-04-01T13:29:22.506Z,10.40
2018-04-01T13:31:25.178Z,7.80
2018-04-01T13:33:28.183Z,9.73
2018-04-01T13:35:30.863Z,8.20
2018-04-01T13:37:33.515Z,8.37
2018-04-01T13:39:36.258Z,8.87
2018-04-01T13:41:38.952Z,8.83
2018-04-01T13:43:41.636Z,9.03
2018-04-01T13:45:44.375Z,9.57
2018-04-01T13:47:47.043Z,8.87
2018-04-01T13:49:49.728Z,8.90
2018-04-01T13:51:52.600Z,8.23
2018-04-01T13:53:55.283Z,9.30
2018-04-01T13:55:57.979Z,8.87
2018-04-01T13:58:00.816Z,9.53
2018-04-01T14:00:03.885Z,9.60
2018-04-01T14:02:06.583Z,10.27
2018-04-01T14:04:09.261Z,9.88
2018-04-01T14:06:11.961Z,9.30
2018-04-01T14:08:14.667Z,9.50
2018-04-01T14:10:17.344Z,9.65
2018-04-01T14:12:20.044Z,9.77
2018-04-01T14:14:22.728Z,10.30
2018-04-01T14:16:25.532Z,9.80
2018-04-01T14:18:28.558Z,10.23
2018-04-01T14:20:31.450Z,9.80
2018-04-01T14:22:34.132Z,9.82
2018-04-01T14:24:36.849Z,10.63
2018-04-01T14:26:39.537Z,12.90
2018-04-01T14:28:42.261Z,17.37
2018-04-01T14:30:44.965Z,15.30
2018-04-01T14:32:47.655Z,11.98
2018-04-01T14:34:50.326Z,10.55
2018-04-01T14:36:53.044Z,11.10
2018-04-01T14:38:55.715Z,10.23
2018-04-01T14:40:58.391Z,10.18
2018-04-01T14:43:01.075Z,10.05
2018-04-01T14:45:03.864Z,9.75
2018-04-01T14:47:06.549Z,8.45
2018-04-01T14:49:09.215Z,9.98
2018-04-01T14:51:11.934Z,8.88
2018-04-01T14:53:14.613Z,15.05
2018-04-01T14:55:17.307Z,16.20
2018-04-01T14:57:20.004Z,9.50
2018-04-01T14:59:22.688Z,9.70
2018-04-01T15:01:25.356Z,8.13
2018-04-01T15:03:28.056Z,9.15
2018-04-01T15:05:30.779Z,8.75
2018-04-01T15:07:33.459Z,8.95
2018-04-01T15:09:36.159Z,8.23
2018-04-01T15:11:38.838Z,7.90
2018-04-01T15:13:41.506Z,8.88
2018-04-01T15:15:44.181Z,8.25
2018-04-01T15:17:46.882Z,7.62
2018-04-01T15:19:49.724Z,8.18
2018-04-01T15:21:52.407Z,8.60
2018-04-01T15:23:55.103Z,8.48
2018-04-01T15:25:57.783Z,7.30
2018-04-01T15:28:00.456Z,6.70
2018-04-01T15:30:03.165Z,7.10
2018-04-01T15:32:05.831Z,6.95
2018-04-01T15:34:08.520Z,7.82
2018-04-01T15:36:11.249Z,8.63
2018-04-01T15:38:13.927Z,7.80
2018-04-01T15:40:16.619Z,8.13
2018-04-01T15:42:19.332Z,7.87
2018-04-01T15:44:22.031Z,8.32
2018-04-01T15:46:24.710Z,8.05
2018-04-01T15:48:27.396Z,8.75
2018-04-01T15:50:30.062Z,8.80
2018-04-01T15:52:32.760Z,8.43
2018-04-01T15:54:35.426Z,8.25
2018-04-01T15:56:38.111Z,8.20
2018-04-01T15:58:40.786Z,7.70
2018-04-01T16:00:43.475Z,8.68
2018-04-01T16:02:46.142Z,7.90
2018-04-01T16:04:49.180Z,8.35
2018-04-01T16:06:51.855Z,9.07
2018-04-01T16:08:54.536Z,9.90
2018-04-01T16:10:57.235Z,8.73
2018-04-01T16:12:59.944Z,9.40
2018-04-01T16:15:02.630Z,8.85
2018-04-01T16:17:05.380Z,9.30
2018-04-01T16:19:08.626Z,15.70
2018-04-01T16:21:12.086Z,8.63
2018-04-01T16:23:14.755Z,7.80
2018-04-01T16:25:17.467Z,9.10
2018-04-01T16:27:20.159Z,10.25
2018-04-01T16:29:22.849Z,11.75
2018-04-01T16:31:25.523Z,8.25
2018-04-01T16:33:28.283Z,8.13
2018-04-01T16:35:30.957Z,7.37
2018-04-01T16:37:33.622Z,8.95
2018-04-01T16:39:36.416Z,7.25
2018-04-01T16:41:39.098Z,7.30
2018-04-01T16:43:41.808Z,13.90
2018-04-01T16:45:44.808Z,10.55
2018-04-01T16:47:47.514Z,8.80
2018-04-01T16:49:50.201Z,9.13
2018-04-01T16:51:52.886Z,8.57
2018-04-01T16:53:55.548Z,7.95
2018-04-01T16:55:58.227Z,14.15
2018-04-01T16:58:00.908Z,9.75
2018-04-01T17:00:03.606Z,9.48
2018-04-01T17:02:06.300Z,10.60
2018-04-01T17:04:08.991Z,10.30
2018-04-01T17:06:11.698Z,10.50
2018-04-01T17:08:14.402Z,9.48
2018-04-01T17:10:17.086Z,9.80
2018-04-01T17:12:19.796Z,10.15
2018-04-01T17:14:22.464Z,10.77
2018-04-01T17:16:25.143Z,14.68
2018-04-01T17:18:28.101Z,13.80
2018-04-01T17:20:30.790Z,9.55
2018-04-01T17:22:33.471Z,10.00
2018-04-01T17:24:36.287Z,9.98
2018-04-01T17:26:39.072Z,10.05
2018-04-01T17:28:41.770Z,10.40
2018-04-01T17:30:44.452Z,10.80
2018-04-01T17:32:47.171Z,11.15
2018-04-01T17:34:49.875Z,9.75
2018-04-01T17:36:52.547Z,10.57
2018-04-01T17:38:55.255Z,10.65
2018-04-01T17:40:57.919Z,11.15
2018-04-01T17:43:00.603Z,11.63
2018-04-01T17:45:03.323Z,11.18
2018-04-01T17:47:05.994Z,9.90
2018-04-01T17:49:08.713Z,11.43
2018-04-01T17:51:11.404Z,11.00
2018-04-01T17:53:14.120Z,9.98
2018-04-01T17:55:16.809Z,9.45
2018-04-01T17:57:19.584Z,10.40
2018-04-01T17:59:22.251Z,10.18
2018-04-01T18:01:24.931Z,12.77
2018-04-01T18:03:27.620Z,11.50
2018-04-01T18:05:30.316Z,13.32
2018-04-01T18:07:33.008Z,12.40
2018-04-01T18:09:35.700Z,12.50
2018-04-01T18:11:38.483Z,12.10
2018-04-01T18:13:41.259Z,11.50
2018-04-01T18:15:43.970Z,12.18
2018-04-01T18:17:46.808Z,12.10
2018-04-01T18:19:49.468Z,13.15
2018-04-01T18:21:52.190Z,12.70
2018-04-01T18:23:54.899Z,12.60
2018-04-01T18:25:57.607Z,12.27
2018-04-01T18:28:00.276Z,13.70
2018-04-01T18:30:02.964Z,13.18
2018-04-01T18:32:05.712Z,12.95
2018-04-01T18:34:08.399Z,12.65
2018-04-01T18:36:11.107Z,9.60
2018-04-01T18:38:13.791Z,10.43
2018-04-01T18:40:16.603Z,10.40
2018-04-01T18:42:19.316Z,11.20
2018-04-01T18:44:22.007Z,10.98
2018-04-01T18:46:24.692Z,11.45
2018-04-01T18:48:27.395Z,11.10
2018-04-01T18:50:30.095Z,11.40
2018-04-01T18:52:32.960Z,10.15
2018-04-01T18:54:35.645Z,10.60
2018-04-01T18:56:38.321Z,10.85
2018-04-01T18:58:41.183Z,10.40
2018-04-01T19:00:43.914Z,10.65
2018-04-01T19:02:49.092Z,8.80
2018-04-01T19:04:51.795Z,10.60
2018-04-01T19:06:54.477Z,10.80
2018-04-01T19:08:57.152Z,10.88
2018-04-01T19:10:59.899Z,11.77
2018-04-01T19:13:02.620Z,10.57
2018-04-01T19:15:05.304Z,10.45
2018-04-01T19:17:08.090Z,10.13
2018-04-01T19:19:10.911Z,9.38
2018-04-01T19:21:13.658Z,10.20
2018-04-01T19:23:16.431Z,10.82
2018-04-01T19:25:19.211Z,9.45
2018-04-01T19:27:21.975Z,8.70
2018-04-01T19:29:24.726Z,10.43
2018-04-01T19:31:27.477Z,10.65
2018-04-01T19:33:30.235Z,9.40
2018-04-01T19:35:33.030Z,9.05
2018-04-01T19:37:35.806Z,11.10
2018-04-01T19:39:38.747Z,10.55
2018-04-01T19:41:41.519Z,10.50
2018-04-01T19:43:46.117Z,25.77
2018-04-01T19:45:48.948Z,24.48
2018-04-01T19:47:51.708Z,14.40
2018-04-01T19:49:54.491Z,10.68
2018-04-01T19:51:57.406Z,12.32
2018-04-01T19:54:00.184Z,11.27
2018-04-01T19:56:02.965Z,10.50
2018-04-01T19:58:05.749Z,9.75
2018-04-01T20:00:08.651Z,9.43
2018-04-01T20:02:11.392Z,10.77
2018-04-01T20:04:15.101Z,10.15
2018-04-01T20:06:17.868Z,11.10
2018-04-01T20:08:20.604Z,10.07
2018-04-01T20:10:23.363Z,10.07
2018-04-01T20:12:27.243Z,10.32
2018-04-01T20:14:29.999Z,10.80
2018-04-01T20:16:32.766Z,9.60
2018-04-01T20:18:35.542Z,12.00
2018-04-01T20:20:38.319Z,11.60
2018-04-01T20:22:41.044Z,11.20
2018-04-01T20:24:43.802Z,10.90
2018-04-01T20:26:46.948Z,11.77
2018-04-01T20:28:49.680Z,11.20
2018-04-01T20:30:52.432Z,21.65
2018-04-01T20:32:55.183Z,17.48
2018-04-01T20:34:57.891Z,15.63
2018-04-01T20:37:00.680Z,13.02
2018-04-01T20:39:03.391Z,16.55
2018-04-01T20:41:06.155Z,16.20
2018-04-01T20:43:08.897Z,13.68
2018-04-01T20:45:11.628Z,12.50
2018-04-01T20:47:14.348Z,12.02
2018-04-01T20:49:17.143Z,12.80
2018-04-01T20:51:19.863Z,12.20
2018-04-01T20:53:22.580Z,14.38
2018-04-01T20:55:25.349Z,13.80
2018-04-01T20:57:28.348Z,12.65
2018-04-01T20:59:31.071Z,12.60
2018-04-01T21:01:33.799Z,11.60
2018-04-01T21:03:36.990Z,12.15
2018-04-01T21:05:39.714Z,13.70
2018-04-01T21:07:42.434Z,12.93
2018-04-01T21:09:45.172Z,12.80
2018-04-01T21:11:47.887Z,13.32
2018-04-01T21:13:50.612Z,14.65
2018-04-01T21:15:53.427Z,13.38
2018-04-01T21:17:56.644Z,11.82
2018-04-01T21:19:59.390Z,10.43
2018-04-01T21:22:02.215Z,11.70
2018-04-01T21:24:04.943Z,10.82
2018-04-01T21:26:07.975Z,10.93
2018-04-01T21:28:10.707Z,11.02
2018-04-01T21:30:13.416Z,11.00
2018-04-01T21:32:16.164Z,11.65
2018-04-01T21:34:18.888Z,10.35
2018-04-01T21:36:21.615Z,11.10
2018-04-01T21:38:24.571Z,10.00
2018-04-01T21:40:27.353Z,12.15
2018-04-01T21:42:30.110Z,11.18
2018-04-01T21:44:32.823Z,11.00
2018-04-01T21:46:35.549Z,11.45
2018-04-01T21:48:38.325Z,10.93
2018-04-01T21:50:41.061Z,11.23
2018-04-01T21:52:43.790Z,11.63
2018-04-01T21:54:46.564Z,12.32
2018-04-01T21:56:49.288Z,10.88
2018-04-01T21:58:52.028Z,12.23
2018-04-01T22:00:54.887Z,11.90
2018-04-01T22:02:57.599Z,10.90
2018-04-01T22:05:00.479Z,12.18
2018-04-01T22:07:03.262Z,11.82
2018-04-01T22:09:06.015Z,12.75
2018-04-01T22:11:08.723Z,13.35
2018-04-01T22:13:11.439Z,10.85
2018-04-01T22:15:14.156Z,11.93
2018-04-01T22:17:16.875Z,13.10
2018-04-01T22:19:19.784Z,11.45
2018-04-01T22:21:22.537Z,12.70
2018-04-01T22:23:25.483Z,11.55
2018-04-01T22:25:28.224Z,9.98
2018-04-01T22:27:30.940Z,10.75
2018-04-01T22:29:33.790Z,10.05
2018-04-01T22:31:36.526Z,11.88
2018-04-01T22:33:39.242Z,12.15
2018-04-01T22:35:41.951Z,11.15
2018-04-01T22:37:44.683Z,11.07
2018-04-01T22:39:47.394Z,11.40
2018-04-01T22:41:50.252Z,10.93
2018-04-01T22:43:52.963Z,12.98
2018-04-01T22:45:55.675Z,11.75
2018-04-01T22:47:58.398Z,12.95
2018-04-01T22:50:01.145Z,12.15
2018-04-01T22:52:03.858Z,13.00
2018-04-01T22:54:06.596Z,12.37
2018-04-01T22:56:09.507Z,13.20
2018-04-01T22:58:12.215Z,14.00
2018-04-01T23:00:15.245Z,12.77
2018-04-01T23:02:17.960Z,11.90
2018-04-01T23:04:20.781Z,13.60
2018-04-01T23:06:23.494Z,14.20
2018-04-01T23:08:26.217Z,14.45
2018-04-01T23:10:28.973Z,14.48
2018-04-01T23:12:31.686Z,13.32
2018-04-01T23:14:34.402Z,14.00
2018-04-01T23:16:37.129Z,13.57
2018-04-01T23:18:39.851Z,14.90
2018-04-01T23:20:42.566Z,15.57
2018-04-01T23:22:45.299Z,14.95
2018-04-01T23:24:48.027Z,14.50
2018-04-01T23:26:50.768Z,14.82
2018-04-01T23:28:53.488Z,15.27
2018-04-01T23:30:56.214Z,14.60
2018-04-01T23:32:58.968Z,16.20
2018-04-01T23:35:01.685Z,14.73
2018-04-01T23:37:04.411Z,14.02
2018-04-01T23:39:07.451Z,14.75
2018-04-01T23:41:10.229Z,15.43
2018-04-01T23:43:12.943Z,15.10
2018-04-01T23:45:15.794Z,15.48
2018-04-01T23:47:18.516Z,14.48
2018-04-01T23:49:21.223Z,15.10
2018-04-01T23:51:23.957Z,13.25
2018-04-01T23:53:26.680Z,15.60
2018-04-01T23:55:29.400Z,12.98
2018-04-01T23:57:32.139Z,13.82
2018-04-01T23:59:34.884Z,13.70
